sensor_id;sensor_type;location;lat;lon;timestamp;P1;durP1;ratioP1;P2;durP2;ratioP2
8044;SDS011;4065;48.754;9.982;2022-08-01T00:01:31;4.72;;;2.90;;
8044;SDS011;4065;48.754;9.982;2022-08-01T00:04:33;3.85;;;3.10;;
8044;SDS011;4065;48.754;9.982;2022-08-01T00:07:34;4.32;;;3.33;;
8044;SDS011;4065;48.754;9.982;2022-08-01T00:10:36;3.80;;;2.80;;
8044;SDS011;4065;48.754;9.982;2022-08-01T00:13:38;5.20;;;3.10;;
8044;SDS011;4065;48.754;9.982;2022-08-01T00:16:40;3.30;;;3.00;;
8044;SDS011;4065;48.754;9.982;2022-08-01T00:19:42;3.55;;;3.25;;
8044;SDS011;4065;48.754;9.982;2022-08-01T00:22:44;4.80;;;3.20;;
8044;SDS011;4065;48.754;9.982;2022-08-01T00:25:45;4.00;;;3.22;;
8044;SDS011;4065;48.754;9.982;2022-08-01T00:28:49;3.70;;;3.15;;
8044;SDS011;4065;48.754;9.982;2022-08-01T00:31:52;5.72;;;3.20;;
8044;SDS011;4065;48.754;9.982;2022-08-01T00:34:54;4.00;;;3.58;;
8044;SDS011;4065;48.754;9.982;2022-08-01T00:37:56;4.70;;;3.20;;
8044;SDS011;4065;48.754;9.982;2022-08-01T00:40:57;3.40;;;3.10;;
8044;SDS011;4065;48.754;9.982;2022-08-01T00:44:01;3.95;;;3.60;;
8044;SDS011;4065;48.754;9.982;2022-08-01T00:47:05;6.47;;;3.20;;
8044;SDS011;4065;48.754;9.982;2022-08-01T00:50:08;4.30;;;3.47;;
8044;SDS011;4065;48.754;9.982;2022-08-01T00:53:10;4.05;;;3.25;;
8044;SDS011;4065;48.754;9.982;2022-08-01T00:56:12;3.65;;;3.35;;
8044;SDS011;4065;48.754;9.982;2022-08-01T00:59:13;3.58;;;3.28;;
8044;SDS011;4065;48.754;9.982;2022-08-01T01:02:16;4.22;;;3.08;;
8044;SDS011;4065;48.754;9.982;2022-08-01T01:05:18;4.15;;;3.38;;
8044;SDS011;4065;48.754;9.982;2022-08-01T01:08:21;4.13;;;3.55;;
8044;SDS011;4065;48.754;9.982;2022-08-01T01:11:28;3.42;;;3.13;;
8044;SDS011;4065;48.754;9.982;2022-08-01T01:14:31;3.83;;;3.42;;
8044;SDS011;4065;48.754;9.982;2022-08-01T01:17:37;5.68;;;3.10;;
8044;SDS011;4065;48.754;9.982;2022-08-01T01:20:42;4.10;;;3.08;;
8044;SDS011;4065;48.754;9.982;2022-08-01T01:23:50;4.40;;;3.70;;
8044;SDS011;4065;48.754;9.982;2022-08-01T01:27:01;3.90;;;3.50;;
8044;SDS011;4065;48.754;9.982;2022-08-01T01:30:09;3.60;;;3.30;;
8044;SDS011;4065;48.754;9.982;2022-08-01T01:33:11;5.40;;;3.28;;
8044;SDS011;4065;48.754;9.982;2022-08-01T01:36:14;3.80;;;3.00;;
8044;SDS011;4065;48.754;9.982;2022-08-01T01:39:16;3.63;;;3.20;;
8044;SDS011;4065;48.754;9.982;2022-08-01T01:42:18;4.65;;;3.30;;
8044;SDS011;4065;48.754;9.982;2022-08-01T01:45:21;4.13;;;3.53;;
8044;SDS011;4065;48.754;9.982;2022-08-01T01:48:25;4.60;;;2.97;;
8044;SDS011;4065;48.754;9.982;2022-08-01T01:51:27;5.53;;;3.13;;
8044;SDS011;4065;48.754;9.982;2022-08-01T01:54:31;4.45;;;3.30;;
8044;SDS011;4065;48.754;9.982;2022-08-01T01:57:37;3.95;;;3.08;;
8044;SDS011;4065;48.754;9.982;2022-08-01T02:00:41;6.13;;;3.13;;
8044;SDS011;4065;48.754;9.982;2022-08-01T02:03:43;3.45;;;3.13;;
8044;SDS011;4065;48.754;9.982;2022-08-01T02:06:48;5.05;;;3.45;;
8044;SDS011;4065;48.754;9.982;2022-08-01T02:09:51;3.28;;;2.97;;
8044;SDS011;4065;48.754;9.982;2022-08-01T02:12:54;8.65;;;3.55;;
8044;SDS011;4065;48.754;9.982;2022-08-01T02:15:59;5.10;;;3.38;;
8044;SDS011;4065;48.754;9.982;2022-08-01T02:19:01;4.85;;;3.58;;
8044;SDS011;4065;48.754;9.982;2022-08-01T02:22:07;3.65;;;3.35;;
8044;SDS011;4065;48.754;9.982;2022-08-01T02:25:15;4.28;;;3.63;;
8044;SDS011;4065;48.754;9.982;2022-08-01T02:28:21;4.38;;;3.80;;
8044;SDS011;4065;48.754;9.982;2022-08-01T02:31:29;5.43;;;3.50;;
8044;SDS011;4065;48.754;9.982;2022-08-01T02:34:33;6.82;;;3.92;;
8044;SDS011;4065;48.754;9.982;2022-08-01T02:37:36;4.40;;;3.55;;
8044;SDS011;4065;48.754;9.982;2022-08-01T02:40:41;5.40;;;3.60;;
8044;SDS011;4065;48.754;9.982;2022-08-01T02:43:45;4.05;;;3.28;;
8044;SDS011;4065;48.754;9.982;2022-08-01T02:46:51;3.85;;;3.42;;
8044;SDS011;4065;48.754;9.982;2022-08-01T02:49:56;4.93;;;3.35;;
8044;SDS011;4065;48.754;9.982;2022-08-01T02:52:58;4.32;;;3.33;;
8044;SDS011;4065;48.754;9.982;2022-08-01T02:56:01;4.05;;;3.38;;
8044;SDS011;4065;48.754;9.982;2022-08-01T02:59:04;4.00;;;3.60;;
8044;SDS011;4065;48.754;9.982;2022-08-01T03:02:10;3.83;;;3.53;;
8044;SDS011;4065;48.754;9.982;2022-08-01T03:05:13;4.00;;;3.60;;
8044;SDS011;4065;48.754;9.982;2022-08-01T03:08:15;3.67;;;3.38;;
8044;SDS011;4065;48.754;9.982;2022-08-01T03:11:17;3.80;;;3.40;;
8044;SDS011;4065;48.754;9.982;2022-08-01T03:14:19;4.15;;;3.75;;
8044;SDS011;4065;48.754;9.982;2022-08-01T03:17:24;4.43;;;3.50;;
8044;SDS011;4065;48.754;9.982;2022-08-01T03:20:28;5.25;;;3.50;;
8044;SDS011;4065;48.754;9.982;2022-08-01T03:23:31;4.55;;;3.47;;
8044;SDS011;4065;48.754;9.982;2022-08-01T03:26:38;3.65;;;3.35;;
8044;SDS011;4065;48.754;9.982;2022-08-01T03:29:41;4.35;;;3.88;;
8044;SDS011;4065;48.754;9.982;2022-08-01T03:32:45;4.80;;;3.47;;
8044;SDS011;4065;48.754;9.982;2022-08-01T03:35:47;4.65;;;3.67;;
8044;SDS011;4065;48.754;9.982;2022-08-01T03:38:52;4.00;;;3.60;;
8044;SDS011;4065;48.754;9.982;2022-08-01T03:41:54;6.88;;;3.75;;
8044;SDS011;4065;48.754;9.982;2022-08-01T03:44:58;5.15;;;3.55;;
8044;SDS011;4065;48.754;9.982;2022-08-01T03:48:05;3.72;;;3.40;;
8044;SDS011;4065;48.754;9.982;2022-08-01T03:51:10;3.63;;;3.33;;
8044;SDS011;4065;48.754;9.982;2022-08-01T03:54:13;4.22;;;3.63;;
8044;SDS011;4065;48.754;9.982;2022-08-01T03:57:15;4.28;;;3.88;;
8044;SDS011;4065;48.754;9.982;2022-08-01T04:00:17;3.75;;;3.45;;
8044;SDS011;4065;48.754;9.982;2022-08-01T04:03:25;4.78;;;3.85;;
8044;SDS011;4065;48.754;9.982;2022-08-01T04:06:26;4.95;;;4.07;;
8044;SDS011;4065;48.754;9.982;2022-08-01T04:09:28;4.25;;;3.47;;
8044;SDS011;4065;48.754;9.982;2022-08-01T04:12:29;3.83;;;3.53;;
8044;SDS011;4065;48.754;9.982;2022-08-01T04:15:34;4.00;;;3.25;;
8044;SDS011;4065;48.754;9.982;2022-08-01T04:18:39;4.35;;;3.63;;
8044;SDS011;4065;48.754;9.982;2022-08-01T04:21:41;4.25;;;3.53;;
8044;SDS011;4065;48.754;9.982;2022-08-01T04:24:50;4.57;;;3.70;;
8044;SDS011;4065;48.754;9.982;2022-08-01T04:27:53;3.80;;;3.50;;
8044;SDS011;4065;48.754;9.982;2022-08-01T04:31:01;5.35;;;3.70;;
8044;SDS011;4065;48.754;9.982;2022-08-01T04:34:05;4.95;;;3.83;;
8044;SDS011;4065;48.754;9.982;2022-08-01T04:37:10;4.65;;;3.75;;
8044;SDS011;4065;48.754;9.982;2022-08-01T04:40:12;5.25;;;3.70;;
8044;SDS011;4065;48.754;9.982;2022-08-01T04:43:13;4.28;;;3.88;;
8044;SDS011;4065;48.754;9.982;2022-08-01T04:46:15;5.85;;;3.80;;
8044;SDS011;4065;48.754;9.982;2022-08-01T04:49:18;5.82;;;4.25;;
8044;SDS011;4065;48.754;9.982;2022-08-01T04:52:20;3.88;;;3.47;;
8044;SDS011;4065;48.754;9.982;2022-08-01T04:55:24;3.97;;;3.58;;
8044;SDS011;4065;48.754;9.982;2022-08-01T04:58:26;4.07;;;3.67;;
8044;SDS011;4065;48.754;9.982;2022-08-01T05:01:27;4.28;;;3.60;;
8044;SDS011;4065;48.754;9.982;2022-08-01T05:04:31;3.60;;;3.30;;
8044;SDS011;4065;48.754;9.982;2022-08-01T05:07:32;4.82;;;4.05;;
8044;SDS011;4065;48.754;9.982;2022-08-01T05:10:36;4.43;;;4.00;;
8044;SDS011;4065;48.754;9.982;2022-08-01T05:13:42;5.22;;;3.75;;
8044;SDS011;4065;48.754;9.982;2022-08-01T05:16:46;4.25;;;3.80;;
8044;SDS011;4065;48.754;9.982;2022-08-01T05:19:49;3.78;;;3.45;;
8044;SDS011;4065;48.754;9.982;2022-08-01T05:22:54;5.38;;;3.88;;
8044;SDS011;4065;48.754;9.982;2022-08-01T05:25:57;5.40;;;4.32;;
8044;SDS011;4065;48.754;9.982;2022-08-01T05:29:01;4.63;;;3.55;;
8044;SDS011;4065;48.754;9.982;2022-08-01T05:32:03;4.10;;;3.38;;
8044;SDS011;4065;48.754;9.982;2022-08-01T05:35:07;4.18;;;3.67;;
8044;SDS011;4065;48.754;9.982;2022-08-01T05:38:12;4.22;;;3.80;;
8044;SDS011;4065;48.754;9.982;2022-08-01T05:41:14;4.45;;;3.72;;
8044;SDS011;4065;48.754;9.982;2022-08-01T05:44:17;5.40;;;3.83;;
8044;SDS011;4065;48.754;9.982;2022-08-01T05:47:22;4.20;;;3.80;;
8044;SDS011;4065;48.754;9.982;2022-08-01T05:50:28;6.00;;;3.80;;
8044;SDS011;4065;48.754;9.982;2022-08-01T05:53:32;6.05;;;4.03;;
8044;SDS011;4065;48.754;9.982;2022-08-01T05:56:38;4.07;;;3.67;;
8044;SDS011;4065;48.754;9.982;2022-08-01T05:59:46;5.07;;;3.95;;
8044;SDS011;4065;48.754;9.982;2022-08-01T06:02:48;4.22;;;3.60;;
8044;SDS011;4065;48.754;9.982;2022-08-01T06:05:52;4.43;;;3.47;;
8044;SDS011;4065;48.754;9.982;2022-08-01T06:08:53;4.40;;;3.50;;
8044;SDS011;4065;48.754;9.982;2022-08-01T06:11:55;4.38;;;3.40;;
8044;SDS011;4065;48.754;9.982;2022-08-01T06:14:57;3.78;;;3.38;;
8044;SDS011;4065;48.754;9.982;2022-08-01T06:17:59;3.67;;;3.22;;
8044;SDS011;4065;48.754;9.982;2022-08-01T06:21:02;4.57;;;3.70;;
8044;SDS011;4065;48.754;9.982;2022-08-01T06:24:04;5.60;;;3.50;;
8044;SDS011;4065;48.754;9.982;2022-08-01T06:27:05;4.65;;;3.25;;
8044;SDS011;4065;48.754;9.982;2022-08-01T06:30:07;4.50;;;3.70;;
8044;SDS011;4065;48.754;9.982;2022-08-01T06:33:09;5.75;;;3.70;;
8044;SDS011;4065;48.754;9.982;2022-08-01T06:36:12;3.95;;;3.55;;
8044;SDS011;4065;48.754;9.982;2022-08-01T06:39:17;6.13;;;3.75;;
8044;SDS011;4065;48.754;9.982;2022-08-01T06:42:18;4.00;;;3.40;;
8044;SDS011;4065;48.754;9.982;2022-08-01T06:45:20;4.93;;;3.42;;
8044;SDS011;4065;48.754;9.982;2022-08-01T06:48:22;3.60;;;3.28;;
8044;SDS011;4065;48.754;9.982;2022-08-01T06:51:25;3.55;;;3.10;;
8044;SDS011;4065;48.754;9.982;2022-08-01T06:54:27;4.78;;;3.08;;
8044;SDS011;4065;48.754;9.982;2022-08-01T06:57:30;5.88;;;2.95;;
8044;SDS011;4065;48.754;9.982;2022-08-01T07:00:38;4.15;;;2.70;;
8044;SDS011;4065;48.754;9.982;2022-08-01T07:03:54;3.00;;;2.67;;
8044;SDS011;4065;48.754;9.982;2022-08-01T07:06:57;4.45;;;2.78;;
8044;SDS011;4065;48.754;9.982;2022-08-01T07:10:01;5.20;;;2.60;;
8044;SDS011;4065;48.754;9.982;2022-08-01T07:13:04;2.80;;;2.30;;
8044;SDS011;4065;48.754;9.982;2022-08-01T07:16:05;5.00;;;2.70;;
8044;SDS011;4065;48.754;9.982;2022-08-01T07:19:07;4.15;;;2.55;;
8044;SDS011;4065;48.754;9.982;2022-08-01T07:22:10;3.40;;;2.33;;
8044;SDS011;4065;48.754;9.982;2022-08-01T07:25:11;2.58;;;2.05;;
8044;SDS011;4065;48.754;9.982;2022-08-01T07:28:15;3.05;;;2.35;;
8044;SDS011;4065;48.754;9.982;2022-08-01T07:31:17;3.20;;;2.20;;
8044;SDS011;4065;48.754;9.982;2022-08-01T07:34:18;3.13;;;2.20;;
8044;SDS011;4065;48.754;9.982;2022-08-01T07:37:21;3.38;;;2.28;;
8044;SDS011;4065;48.754;9.982;2022-08-01T07:40:26;3.45;;;1.98;;
8044;SDS011;4065;48.754;9.982;2022-08-01T07:43:27;2.72;;;2.03;;
8044;SDS011;4065;48.754;9.982;2022-08-01T07:46:31;3.97;;;2.08;;
8044;SDS011;4065;48.754;9.982;2022-08-01T07:49:35;4.63;;;2.10;;
8044;SDS011;4065;48.754;9.982;2022-08-01T07:52:38;2.35;;;2.15;;
8044;SDS011;4065;48.754;9.982;2022-08-01T07:55:39;3.00;;;2.25;;
8044;SDS011;4065;48.754;9.982;2022-08-01T07:58:41;3.22;;;2.50;;
8044;SDS011;4065;48.754;9.982;2022-08-01T08:01:42;2.22;;;1.92;;
8044;SDS011;4065;48.754;9.982;2022-08-01T08:04:46;4.68;;;2.38;;
8044;SDS011;4065;48.754;9.982;2022-08-01T08:07:51;3.15;;;2.58;;
8044;SDS011;4065;48.754;9.982;2022-08-01T08:10:53;2.95;;;2.50;;
8044;SDS011;4065;48.754;9.982;2022-08-01T08:13:55;3.58;;;2.97;;
8044;SDS011;4065;48.754;9.982;2022-08-01T08:16:56;4.28;;;2.70;;
8044;SDS011;4065;48.754;9.982;2022-08-01T08:19:58;3.05;;;2.72;;
8044;SDS011;4065;48.754;9.982;2022-08-01T08:23:01;4.72;;;2.75;;
8044;SDS011;4065;48.754;9.982;2022-08-01T08:26:22;3.58;;;2.70;;
8044;SDS011;4065;48.754;9.982;2022-08-01T08:29:28;4.57;;;2.80;;
8044;SDS011;4065;48.754;9.982;2022-08-01T08:32:32;3.83;;;3.13;;
8044;SDS011;4065;48.754;9.982;2022-08-01T08:35:33;3.70;;;2.72;;
8044;SDS011;4065;48.754;9.982;2022-08-01T08:38:36;5.22;;;3.17;;
8044;SDS011;4065;48.754;9.982;2022-08-01T08:41:38;2.97;;;2.67;;
8044;SDS011;4065;48.754;9.982;2022-08-01T08:44:40;3.55;;;2.78;;
8044;SDS011;4065;48.754;9.982;2022-08-01T08:47:42;3.83;;;3.00;;
8044;SDS011;4065;48.754;9.982;2022-08-01T08:50:48;5.15;;;2.75;;
8044;SDS011;4065;48.754;9.982;2022-08-01T08:53:52;3.72;;;2.88;;
8044;SDS011;4065;48.754;9.982;2022-08-01T08:56:59;3.20;;;2.90;;
8044;SDS011;4065;48.754;9.982;2022-08-01T09:00:01;3.42;;;2.70;;
8044;SDS011;4065;48.754;9.982;2022-08-01T09:03:03;3.38;;;3.08;;
8044;SDS011;4065;48.754;9.982;2022-08-01T09:06:05;3.20;;;2.90;;
8044;SDS011;4065;48.754;9.982;2022-08-01T09:09:12;3.65;;;2.85;;
8044;SDS011;4065;48.754;9.982;2022-08-01T09:12:15;3.28;;;2.97;;
8044;SDS011;4065;48.754;9.982;2022-08-01T09:15:17;3.95;;;2.65;;
8044;SDS011;4065;48.754;9.982;2022-08-01T09:18:31;3.13;;;2.80;;
8044;SDS011;4065;48.754;9.982;2022-08-01T09:21:34;3.55;;;3.00;;
8044;SDS011;4065;48.754;9.982;2022-08-01T09:24:37;4.07;;;3.65;;
8044;SDS011;4065;48.754;9.982;2022-08-01T09:27:40;5.75;;;3.10;;
8044;SDS011;4065;48.754;9.982;2022-08-01T09:30:41;2.95;;;2.75;;
8044;SDS011;4065;48.754;9.982;2022-08-01T09:33:47;4.40;;;2.92;;
8044;SDS011;4065;48.754;9.982;2022-08-01T09:36:53;3.15;;;2.80;;
8044;SDS011;4065;48.754;9.982;2022-08-01T09:39:58;2.40;;;2.17;;
8044;SDS011;4065;48.754;9.982;2022-08-01T09:43:09;3.33;;;3.00;;
8044;SDS011;4065;48.754;9.982;2022-08-01T09:46:16;4.47;;;2.90;;
8044;SDS011;4065;48.754;9.982;2022-08-01T09:49:26;3.10;;;2.90;;
8044;SDS011;4065;48.754;9.982;2022-08-01T09:52:29;3.30;;;3.00;;
8044;SDS011;4065;48.754;9.982;2022-08-01T09:55:32;3.85;;;3.05;;
8044;SDS011;4065;48.754;9.982;2022-08-01T09:58:48;4.13;;;2.88;;
8044;SDS011;4065;48.754;9.982;2022-08-01T10:01:51;3.88;;;3.00;;
8044;SDS011;4065;48.754;9.982;2022-08-01T10:04:52;5.32;;;2.58;;
8044;SDS011;4065;48.754;9.982;2022-08-01T10:07:55;4.65;;;2.75;;
8044;SDS011;4065;48.754;9.982;2022-08-01T10:11:06;2.90;;;2.63;;
8044;SDS011;4065;48.754;9.982;2022-08-01T10:14:09;3.42;;;3.10;;
8044;SDS011;4065;48.754;9.982;2022-08-01T10:17:14;4.93;;;2.70;;
8044;SDS011;4065;48.754;9.982;2022-08-01T10:20:19;3.08;;;2.78;;
8044;SDS011;4065;48.754;9.982;2022-08-01T10:23:24;2.72;;;2.53;;
8044;SDS011;4065;48.754;9.982;2022-08-01T10:26:32;2.95;;;2.65;;
8044;SDS011;4065;48.754;9.982;2022-08-01T10:29:36;3.00;;;2.45;;
8044;SDS011;4065;48.754;9.982;2022-08-01T10:32:39;2.90;;;2.60;;
8044;SDS011;4065;48.754;9.982;2022-08-01T10:35:44;2.72;;;2.53;;
8044;SDS011;4065;48.754;9.982;2022-08-01T10:38:46;3.40;;;2.80;;
8044;SDS011;4065;48.754;9.982;2022-08-01T10:41:55;2.85;;;2.63;;
8044;SDS011;4065;48.754;9.982;2022-08-01T10:44:59;3.35;;;2.92;;
8044;SDS011;4065;48.754;9.982;2022-08-01T10:48:03;2.88;;;2.60;;
8044;SDS011;4065;48.754;9.982;2022-08-01T10:51:10;3.83;;;3.20;;
8044;SDS011;4065;48.754;9.982;2022-08-01T10:54:12;4.57;;;3.40;;
8044;SDS011;4065;48.754;9.982;2022-08-01T10:57:15;5.05;;;3.17;;
8044;SDS011;4065;48.754;9.982;2022-08-01T11:00:18;4.47;;;3.40;;
8044;SDS011;4065;48.754;9.982;2022-08-01T11:03:25;4.85;;;3.80;;
8044;SDS011;4065;48.754;9.982;2022-08-01T11:06:39;5.70;;;4.15;;
8044;SDS011;4065;48.754;9.982;2022-08-01T11:09:43;5.28;;;3.63;;
8044;SDS011;4065;48.754;9.982;2022-08-01T11:12:49;4.20;;;3.80;;
8044;SDS011;4065;48.754;9.982;2022-08-01T11:15:51;4.15;;;3.75;;
8044;SDS011;4065;48.754;9.982;2022-08-01T11:19:33;3.92;;;3.58;;
8044;SDS011;4065;48.754;9.982;2022-08-01T11:23:17;4.35;;;3.90;;
8044;SDS011;4065;48.754;9.982;2022-08-01T11:26:19;5.30;;;3.88;;
8044;SDS011;4065;48.754;9.982;2022-08-01T11:29:23;3.58;;;3.28;;
8044;SDS011;4065;48.754;9.982;2022-08-01T11:32:31;3.88;;;3.47;;
8044;SDS011;4065;48.754;9.982;2022-08-01T11:35:34;4.30;;;3.60;;
8044;SDS011;4065;48.754;9.982;2022-08-01T11:38:40;3.58;;;3.28;;
8044;SDS011;4065;48.754;9.982;2022-08-01T11:41:48;4.38;;;3.38;;
8044;SDS011;4065;48.754;9.982;2022-08-01T11:44:51;4.50;;;3.88;;
8044;SDS011;4065;48.754;9.982;2022-08-01T11:47:53;4.78;;;4.38;;
8044;SDS011;4065;48.754;9.982;2022-08-01T11:50:55;5.68;;;4.30;;
8044;SDS011;4065;48.754;9.982;2022-08-01T11:53:58;5.28;;;3.55;;
8044;SDS011;4065;48.754;9.982;2022-08-01T11:57:00;3.88;;;3.58;;
8044;SDS011;4065;48.754;9.982;2022-08-01T12:00:12;5.55;;;4.00;;
8044;SDS011;4065;48.754;9.982;2022-08-01T12:03:16;6.13;;;3.58;;
8044;SDS011;4065;48.754;9.982;2022-08-01T12:06:26;3.55;;;3.25;;
8044;SDS011;4065;48.754;9.982;2022-08-01T12:09:28;4.07;;;3.38;;
8044;SDS011;4065;48.754;9.982;2022-08-01T12:12:30;4.43;;;3.80;;
8044;SDS011;4065;48.754;9.982;2022-08-01T12:15:34;4.90;;;3.67;;
8044;SDS011;4065;48.754;9.982;2022-08-01T12:18:38;3.58;;;3.28;;
8044;SDS011;4065;48.754;9.982;2022-08-01T12:21:39;3.53;;;3.22;;
8044;SDS011;4065;48.754;9.982;2022-08-01T12:24:41;3.83;;;2.97;;
8044;SDS011;4065;48.754;9.982;2022-08-01T12:27:44;3.88;;;3.30;;
8044;SDS011;4065;48.754;9.982;2022-08-01T12:30:54;3.45;;;3.15;;
8044;SDS011;4065;48.754;9.982;2022-08-01T12:33:56;3.60;;;3.30;;
8044;SDS011;4065;48.754;9.982;2022-08-01T12:37:00;3.00;;;2.70;;
8044;SDS011;4065;48.754;9.982;2022-08-01T12:40:09;3.63;;;3.20;;
8044;SDS011;4065;48.754;9.982;2022-08-01T12:43:15;4.20;;;3.80;;
8044;SDS011;4065;48.754;9.982;2022-08-01T12:46:18;4.10;;;3.20;;
8044;SDS011;4065;48.754;9.982;2022-08-01T12:49:21;3.47;;;3.05;;
8044;SDS011;4065;48.754;9.982;2022-08-01T12:52:23;3.50;;;3.17;;
8044;SDS011;4065;48.754;9.982;2022-08-01T12:55:30;3.60;;;3.28;;
8044;SDS011;4065;48.754;9.982;2022-08-01T12:58:32;5.65;;;3.22;;
8044;SDS011;4065;48.754;9.982;2022-08-01T13:01:36;3.78;;;3.47;;
8044;SDS011;4065;48.754;9.982;2022-08-01T13:04:48;5.05;;;3.33;;
8044;SDS011;4065;48.754;9.982;2022-08-01T13:07:51;3.35;;;3.05;;
8044;SDS011;4065;48.754;9.982;2022-08-01T13:11:00;3.65;;;3.20;;
8044;SDS011;4065;48.754;9.982;2022-08-01T13:14:02;4.93;;;3.30;;
8044;SDS011;4065;48.754;9.982;2022-08-01T13:17:09;3.30;;;3.00;;
8044;SDS011;4065;48.754;9.982;2022-08-01T13:20:24;3.25;;;2.95;;
8044;SDS011;4065;48.754;9.982;2022-08-01T13:23:27;3.97;;;2.92;;
8044;SDS011;4065;48.754;9.982;2022-08-01T13:26:41;7.53;;;3.05;;
8044;SDS011;4065;48.754;9.982;2022-08-01T13:29:44;3.45;;;3.00;;
8044;SDS011;4065;48.754;9.982;2022-08-01T13:32:57;4.50;;;3.03;;
8044;SDS011;4065;48.754;9.982;2022-08-01T13:36:02;3.05;;;2.50;;
8044;SDS011;4065;48.754;9.982;2022-08-01T13:39:06;3.47;;;3.13;;
8044;SDS011;4065;48.754;9.982;2022-08-01T13:42:25;4.97;;;3.33;;
8044;SDS011;4065;48.754;9.982;2022-08-01T13:45:29;3.55;;;3.03;;
8044;SDS011;4065;48.754;9.982;2022-08-01T13:48:33;3.72;;;2.90;;
8044;SDS011;4065;48.754;9.982;2022-08-01T13:51:35;3.65;;;3.33;;
8044;SDS011;4065;48.754;9.982;2022-08-01T13:54:37;3.08;;;2.78;;
8044;SDS011;4065;48.754;9.982;2022-08-01T13:57:38;5.53;;;3.25;;
8044;SDS011;4065;48.754;9.982;2022-08-01T14:00:40;3.50;;;3.20;;
8044;SDS011;4065;48.754;9.982;2022-08-01T14:03:43;4.45;;;3.00;;
8044;SDS011;4065;48.754;9.982;2022-08-01T14:06:45;3.53;;;3.22;;
8044;SDS011;4065;48.754;9.982;2022-08-01T14:09:49;3.10;;;2.78;;
8044;SDS011;4065;48.754;9.982;2022-08-01T14:12:51;3.08;;;2.67;;
8044;SDS011;4065;48.754;9.982;2022-08-01T14:15:52;3.30;;;3.00;;
8044;SDS011;4065;48.754;9.982;2022-08-01T14:18:55;3.05;;;2.67;;
8044;SDS011;4065;48.754;9.982;2022-08-01T14:21:57;3.05;;;2.78;;
8044;SDS011;4065;48.754;9.982;2022-08-01T14:24:59;3.05;;;2.40;;
8044;SDS011;4065;48.754;9.982;2022-08-01T14:28:02;3.10;;;2.60;;
8044;SDS011;4065;48.754;9.982;2022-08-01T14:31:06;3.47;;;2.78;;
8044;SDS011;4065;48.754;9.982;2022-08-01T14:34:12;2.70;;;2.42;;
8044;SDS011;4065;48.754;9.982;2022-08-01T14:37:14;2.63;;;2.30;;
8044;SDS011;4065;48.754;9.982;2022-08-01T14:40:18;3.10;;;2.33;;
8044;SDS011;4065;48.754;9.982;2022-08-01T14:43:19;2.95;;;2.30;;
8044;SDS011;4065;48.754;9.982;2022-08-01T14:46:21;5.00;;;2.40;;
8044;SDS011;4065;48.754;9.982;2022-08-01T14:49:27;3.40;;;2.20;;
8044;SDS011;4065;48.754;9.982;2022-08-01T14:52:31;4.60;;;2.30;;
8044;SDS011;4065;48.754;9.982;2022-08-01T14:55:33;3.22;;;2.20;;
8044;SDS011;4065;48.754;9.982;2022-08-01T14:58:34;2.72;;;2.00;;
8044;SDS011;4065;48.754;9.982;2022-08-01T15:01:38;3.05;;;2.08;;
8044;SDS011;4065;48.754;9.982;2022-08-01T15:04:41;4.65;;;2.45;;
8044;SDS011;4065;48.754;9.982;2022-08-01T15:07:44;2.67;;;2.00;;
8044;SDS011;4065;48.754;9.982;2022-08-01T15:10:45;3.25;;;2.22;;
8044;SDS011;4065;48.754;9.982;2022-08-01T15:13:47;3.25;;;2.22;;
8044;SDS011;4065;48.754;9.982;2022-08-01T15:17:10;2.63;;;2.40;;
8044;SDS011;4065;48.754;9.982;2022-08-01T15:20:13;2.78;;;2.30;;
8044;SDS011;4065;48.754;9.982;2022-08-01T15:23:18;2.47;;;2.20;;
8044;SDS011;4065;48.754;9.982;2022-08-01T15:26:58;2.70;;;2.00;;
8044;SDS011;4065;48.754;9.982;2022-08-01T15:30:00;2.20;;;2.00;;
8044;SDS011;4065;48.754;9.982;2022-08-01T15:33:02;5.90;;;2.00;;
8044;SDS011;4065;48.754;9.982;2022-08-01T15:36:05;2.47;;;2.00;;
8044;SDS011;4065;48.754;9.982;2022-08-01T15:39:07;2.90;;;1.67;;
8044;SDS011;4065;48.754;9.982;2022-08-01T15:42:11;5.35;;;2.33;;
8044;SDS011;4065;48.754;9.982;2022-08-01T15:45:14;2.55;;;1.90;;
8044;SDS011;4065;48.754;9.982;2022-08-01T15:48:18;3.22;;;1.80;;
8044;SDS011;4065;48.754;9.982;2022-08-01T15:51:29;2.17;;;1.90;;
8044;SDS011;4065;48.754;9.982;2022-08-01T15:54:33;4.53;;;2.22;;
8044;SDS011;4065;48.754;9.982;2022-08-01T16:01:47;5.60;;;1.95;;
8044;SDS011;4065;48.754;9.982;2022-08-01T16:05:02;3.63;;;2.25;;
8044;SDS011;4065;48.754;9.982;2022-08-01T16:08:05;2.10;;;1.90;;
8044;SDS011;4065;48.754;9.982;2022-08-01T16:11:08;2.45;;;2.10;;
8044;SDS011;4065;48.754;9.982;2022-08-01T16:14:25;2.10;;;1.90;;
8044;SDS011;4065;48.754;9.982;2022-08-01T16:18:41;2.42;;;2.00;;
8044;SDS011;4065;48.754;9.982;2022-08-01T16:21:54;2.70;;;1.98;;
8044;SDS011;4065;48.754;9.982;2022-08-01T16:25:09;2.30;;;2.10;;
8044;SDS011;4065;48.754;9.982;2022-08-01T16:28:13;2.30;;;2.10;;
8044;SDS011;4065;48.754;9.982;2022-08-01T16:31:16;2.40;;;2.17;;
8044;SDS011;4065;48.754;9.982;2022-08-01T16:34:18;2.88;;;2.05;;
8044;SDS011;4065;48.754;9.982;2022-08-01T16:37:20;3.25;;;1.90;;
8044;SDS011;4065;48.754;9.982;2022-08-01T16:40:28;3.95;;;2.13;;
8044;SDS011;4065;48.754;9.982;2022-08-01T16:43:33;4.47;;;2.25;;
8044;SDS011;4065;48.754;9.982;2022-08-01T16:46:36;3.00;;;2.00;;
8044;SDS011;4065;48.754;9.982;2022-08-01T16:49:39;3.70;;;2.50;;
8044;SDS011;4065;48.754;9.982;2022-08-01T16:52:46;2.00;;;1.90;;
8044;SDS011;4065;48.754;9.982;2022-08-01T16:56:21;3.25;;;2.28;;
8044;SDS011;4065;48.754;9.982;2022-08-01T16:59:23;2.13;;;1.80;;
8044;SDS011;4065;48.754;9.982;2022-08-01T17:02:24;4.22;;;2.22;;
8044;SDS011;4065;48.754;9.982;2022-08-01T17:05:26;7.57;;;2.50;;
8044;SDS011;4065;48.754;9.982;2022-08-01T17:08:30;14.93;;;3.85;;
8044;SDS011;4065;48.754;9.982;2022-08-01T17:11:33;13.18;;;3.90;;
8044;SDS011;4065;48.754;9.982;2022-08-01T17:14:35;4.55;;;2.30;;
8044;SDS011;4065;48.754;9.982;2022-08-01T17:17:38;5.18;;;2.75;;
8044;SDS011;4065;48.754;9.982;2022-08-01T17:20:44;4.95;;;2.72;;
8044;SDS011;4065;48.754;9.982;2022-08-01T17:23:49;5.00;;;2.40;;
8044;SDS011;4065;48.754;9.982;2022-08-01T17:26:52;4.43;;;2.17;;
8044;SDS011;4065;48.754;9.982;2022-08-01T17:29:58;5.03;;;2.53;;
8044;SDS011;4065;48.754;9.982;2022-08-01T17:32:59;4.00;;;2.33;;
8044;SDS011;4065;48.754;9.982;2022-08-01T17:36:01;3.88;;;2.40;;
8044;SDS011;4065;48.754;9.982;2022-08-01T17:39:05;3.45;;;2.47;;
8044;SDS011;4065;48.754;9.982;2022-08-01T17:42:09;3.63;;;2.42;;
8044;SDS011;4065;48.754;9.982;2022-08-01T17:45:11;2.80;;;2.25;;
8044;SDS011;4065;48.754;9.982;2022-08-01T17:48:16;3.53;;;2.10;;
8044;SDS011;4065;48.754;9.982;2022-08-01T17:51:17;2.30;;;2.10;;
8044;SDS011;4065;48.754;9.982;2022-08-01T17:54:21;3.55;;;2.20;;
8044;SDS011;4065;48.754;9.982;2022-08-01T17:57:26;2.97;;;2.20;;
8044;SDS011;4065;48.754;9.982;2022-08-01T18:00:28;4.32;;;2.72;;
8044;SDS011;4065;48.754;9.982;2022-08-01T18:03:30;2.40;;;2.00;;
8044;SDS011;4065;48.754;9.982;2022-08-01T18:06:34;2.92;;;1.90;;
8044;SDS011;4065;48.754;9.982;2022-08-01T18:09:36;3.35;;;2.20;;
8044;SDS011;4065;48.754;9.982;2022-08-01T18:12:39;3.92;;;2.33;;
8044;SDS011;4065;48.754;9.982;2022-08-01T18:15:41;2.47;;;1.98;;
8044;SDS011;4065;48.754;9.982;2022-08-01T18:18:44;4.07;;;2.28;;
8044;SDS011;4065;48.754;9.982;2022-08-01T18:21:51;3.72;;;2.70;;
8044;SDS011;4065;48.754;9.982;2022-08-01T18:24:53;2.92;;;2.20;;
8044;SDS011;4065;48.754;9.982;2022-08-01T18:27:55;3.58;;;2.25;;
8044;SDS011;4065;48.754;9.982;2022-08-01T18:31:00;4.53;;;2.92;;
8044;SDS011;4065;48.754;9.982;2022-08-01T18:34:02;3.60;;;2.40;;
8044;SDS011;4065;48.754;9.982;2022-08-01T18:37:03;4.97;;;2.40;;
8044;SDS011;4065;48.754;9.982;2022-08-01T18:40:05;4.57;;;2.53;;
8044;SDS011;4065;48.754;9.982;2022-08-01T18:43:14;3.92;;;2.60;;
8044;SDS011;4065;48.754;9.982;2022-08-01T18:46:18;3.17;;;2.38;;
8044;SDS011;4065;48.754;9.982;2022-08-01T18:49:20;7.20;;;2.20;;
8044;SDS011;4065;48.754;9.982;2022-08-01T18:52:22;3.78;;;2.30;;
8044;SDS011;4065;48.754;9.982;2022-08-01T18:55:23;3.00;;;2.40;;
8044;SDS011;4065;48.754;9.982;2022-08-01T18:58:26;4.35;;;2.53;;
8044;SDS011;4065;48.754;9.982;2022-08-01T19:01:28;4.57;;;2.42;;
8044;SDS011;4065;48.754;9.982;2022-08-01T19:04:30;3.67;;;2.65;;
8044;SDS011;4065;48.754;9.982;2022-08-01T19:07:32;4.00;;;2.35;;
8044;SDS011;4065;48.754;9.982;2022-08-01T19:10:33;2.33;;;2.03;;